createdAt,value
2022-10-18T00:01:10.994Z,19.23
2022-10-18T00:03:39.683Z,19.32
2022-10-18T00:06:11.784Z,19.30
2022-10-18T00:08:39.773Z,19.33
2022-10-18T00:11:08.536Z,19.45
2022-10-18T00:13:37.775Z,19.37
2022-10-18T00:16:15.111Z,19.27
2022-10-18T00:18:44.234Z,19.33
2022-10-18T00:21:19.034Z,19.42
2022-10-18T00:23:48.894Z,19.42
2022-10-18T00:26:20.545Z,19.51
2022-10-18T00:28:53.709Z,19.62
2022-10-18T00:31:26.806Z,19.61
2022-10-18T00:33:58.284Z,19.65
2022-10-18T00:36:28.750Z,19.67
2022-10-18T00:38:57.250Z,19.57
2022-10-18T00:41:29.733Z,19.63
2022-10-18T00:44:02.309Z,19.65
2022-10-18T00:46:34.084Z,19.69
2022-10-18T00:49:07.534Z,19.65
2022-10-18T00:51:42.603Z,19.59
2022-10-18T00:54:11.474Z,19.56
2022-10-18T00:56:39.935Z,19.59
2022-10-18T00:59:08.511Z,19.60
2022-10-18T01:01:37.903Z,19.61
2022-10-18T01:04:05.975Z,19.54
2022-10-18T01:06:50.576Z,19.44
2022-10-18T01:09:29.739Z,19.52
2022-10-18T01:12:20.471Z,19.49
2022-10-18T01:15:03.411Z,19.54
2022-10-18T01:17:44.346Z,19.50
2022-10-18T01:21:06.804Z,19.48
2022-10-18T01:24:01.461Z,19.49
2022-10-18T01:27:01.790Z,19.50
2022-10-18T01:29:50.709Z,19.50
2022-10-18T01:32:26.576Z,19.39
2022-10-18T01:35:03.939Z,19.31
2022-10-18T01:37:35.404Z,19.37
2022-10-18T01:40:07.636Z,19.40
2022-10-18T01:42:35.519Z,19.43
2022-10-18T01:45:08.428Z,19.47
2022-10-18T01:47:39.254Z,19.52
2022-10-18T01:50:08.298Z,19.56
2022-10-18T01:52:36.334Z,19.53
2022-10-18T01:55:07.150Z,19.49
2022-10-18T01:57:41.455Z,19.50
2022-10-18T02:00:17.461Z,19.49
2022-10-18T02:02:54.288Z,19.52
2022-10-18T02:05:33.249Z,19.57
2022-10-18T02:08:23.241Z,19.41
2022-10-18T02:10:58.734Z,19.40
2022-10-18T02:13:34.291Z,19.36
2022-10-18T02:16:13.020Z,19.29
2022-10-18T02:18:49.904Z,19.31
2022-10-18T02:21:24.633Z,19.26
2022-10-18T02:23:53.089Z,19.31
2022-10-18T02:26:21.312Z,19.34
2022-10-18T02:28:50.289Z,19.30
2022-10-18T02:31:26.372Z,19.28
2022-10-18T02:34:02.369Z,19.30
2022-10-18T02:36:38.122Z,19.36
2022-10-18T02:39:16.661Z,19.33
2022-10-18T02:41:45.038Z,19.24
2022-10-18T02:44:13.231Z,19.24
2022-10-18T02:46:42.838Z,19.29
2022-10-18T02:49:11.979Z,19.20
2022-10-18T02:51:39.791Z,19.25
2022-10-18T02:54:08.442Z,19.32
2022-10-18T02:56:36.664Z,19.41
2022-10-18T02:59:07.227Z,19.45
2022-10-18T03:01:36.668Z,19.49
2022-10-18T03:04:05.331Z,19.52
2022-10-18T03:06:35.159Z,19.53
2022-10-18T03:09:04.591Z,19.62
2022-10-18T03:11:32.779Z,19.65
2022-10-18T03:14:01.809Z,19.67
2022-10-18T03:16:29.977Z,19.70
2022-10-18T03:18:57.923Z,19.76
2022-10-18T03:21:26.036Z,19.78
2022-10-18T03:23:56.015Z,19.80
2022-10-18T03:26:24.084Z,19.75
2022-10-18T03:28:52.163Z,19.71
2022-10-18T03:31:20.426Z,19.66
2022-10-18T03:33:48.593Z,19.57
2022-10-18T03:36:18.356Z,19.58
2022-10-18T03:38:46.572Z,19.63
2022-10-18T03:41:15.720Z,19.58
2022-10-18T03:43:43.741Z,19.65
2022-10-18T03:46:11.649Z,19.69
2022-10-18T03:48:39.465Z,19.69
2022-10-18T03:51:07.612Z,19.65
2022-10-18T03:53:44.377Z,19.71
2022-10-18T03:56:12.242Z,19.70
2022-10-18T03:58:41.344Z,19.62
2022-10-18T04:01:09.330Z,19.41
2022-10-18T04:03:37.217Z,19.43
2022-10-18T04:06:05.252Z,19.39
2022-10-18T04:08:33.091Z,19.34
2022-10-18T04:11:08.243Z,19.23
2022-10-18T04:13:36.305Z,19.19
2022-10-18T04:16:05.995Z,19.17
2022-10-18T04:18:33.763Z,19.20
2022-10-18T04:21:01.705Z,19.07
2022-10-18T04:23:31.800Z,18.90
2022-10-18T04:26:02.086Z,18.84
2022-10-18T04:28:36.229Z,18.90
2022-10-18T04:31:06.408Z,18.94
2022-10-18T04:33:34.377Z,18.98
2022-10-18T04:36:03.573Z,18.94
2022-10-18T04:38:31.573Z,18.78
2022-10-18T04:40:59.431Z,18.68
2022-10-18T04:43:28.716Z,18.68
2022-10-18T04:45:56.816Z,18.69
2022-10-18T04:48:26.776Z,18.63
2022-10-18T04:50:54.625Z,18.54
2022-10-18T04:53:25.832Z,18.60
2022-10-18T04:55:54.061Z,18.59
2022-10-18T04:58:22.044Z,18.55
2022-10-18T05:00:50.720Z,18.51
2022-10-18T05:03:20.685Z,18.56
2022-10-18T05:06:01.374Z,18.56
2022-10-18T05:08:32.865Z,18.59
2022-10-18T05:11:01.721Z,18.58
2022-10-18T05:13:30.730Z,18.51
2022-10-18T05:16:00.126Z,18.50
2022-10-18T05:18:28.071Z,18.40
2022-10-18T05:20:57.465Z,18.39
2022-10-18T05:23:25.852Z,18.43
2022-10-18T05:25:54.248Z,18.38
2022-10-18T05:28:41.750Z,18.18
2022-10-18T05:31:12.008Z,18.03
2022-10-18T05:33:40.572Z,18.09
2022-10-18T05:36:10.571Z,18.27
2022-10-18T05:38:41.858Z,18.25
2022-10-18T05:41:10.714Z,18.25
2022-10-18T05:43:39.275Z,18.27
2022-10-18T05:46:13.681Z,18.38
2022-10-18T05:48:44.041Z,18.34
2022-10-18T05:51:13.194Z,18.33
2022-10-18T05:53:41.135Z,18.20
2022-10-18T05:56:12.418Z,18.15
2022-10-18T05:58:41.552Z,17.98
2022-10-18T06:01:10.428Z,18.06
2022-10-18T06:03:38.599Z,17.85
2022-10-18T06:06:11.179Z,17.85
2022-10-18T06:08:42.260Z,17.76
2022-10-18T06:11:20.730Z,17.87
2022-10-18T06:13:51.406Z,17.93
2022-10-18T06:16:22.855Z,17.81
2022-10-18T06:18:53.905Z,17.67
2022-10-18T06:21:23.292Z,17.66
2022-10-18T06:23:54.788Z,17.72
2022-10-18T06:26:23.146Z,17.76
2022-10-18T06:28:51.447Z,17.74
2022-10-18T06:31:22.304Z,17.58
2022-10-18T06:33:50.525Z,17.57
2022-10-18T06:36:23.982Z,17.62
2022-10-18T06:38:56.226Z,17.82
2022-10-18T06:41:24.299Z,17.80
2022-10-18T06:43:56.919Z,17.57
2022-10-18T06:46:25.692Z,17.49
2022-10-18T06:48:53.678Z,17.46
2022-10-18T06:51:22.567Z,17.38
2022-10-18T06:54:13.002Z,17.39
2022-10-18T06:56:41.331Z,17.25
2022-10-18T06:59:09.337Z,17.18
2022-10-18T07:01:38.294Z,17.17
2022-10-18T07:04:07.336Z,17.15
2022-10-18T07:06:37.968Z,17.29
2022-10-18T07:09:05.863Z,17.40
2022-10-18T07:11:33.674Z,17.32
2022-10-18T07:14:05.126Z,17.18
2022-10-18T07:16:34.673Z,17.24
2022-10-18T07:19:03.140Z,17.31
2022-10-18T07:21:31.745Z,17.41
2022-10-18T07:24:01.382Z,17.48
2022-10-18T07:26:33.106Z,17.42
2022-10-18T07:29:07.991Z,17.47
2022-10-18T07:31:38.489Z,17.51
2022-10-18T07:34:07.815Z,17.56
2022-10-18T07:36:37.222Z,17.59
2022-10-18T07:39:05.924Z,17.68
2022-10-18T07:41:36.057Z,17.74
2022-10-18T07:44:05.775Z,17.66
2022-10-18T07:46:34.050Z,17.74
2022-10-18T07:49:01.960Z,17.82
2022-10-18T07:51:32.652Z,17.78
2022-10-18T07:54:00.407Z,17.72
2022-10-18T07:56:29.531Z,17.62
2022-10-18T07:58:57.521Z,17.66
2022-10-18T08:01:31.571Z,17.66
2022-10-18T08:04:06.101Z,17.63
2022-10-18T08:06:36.671Z,17.75
2022-10-18T08:09:05.850Z,17.93
2022-10-18T08:11:35.947Z,18.04
2022-10-18T08:14:04.882Z,17.83
2022-10-18T08:16:34.635Z,17.53
2022-10-18T08:19:02.623Z,17.47
2022-10-18T08:21:30.767Z,17.28
2022-10-18T08:23:58.715Z,17.61
2022-10-18T08:26:26.974Z,17.78
2022-10-18T08:29:10.265Z,17.88
2022-10-18T08:31:44.576Z,17.96
2022-10-18T08:34:17.192Z,17.94
2022-10-18T08:36:50.953Z,18.18
2022-10-18T08:39:19.443Z,18.32
2022-10-18T08:42:16.077Z,18.34
2022-10-18T08:44:48.693Z,18.50
2022-10-18T08:47:21.650Z,18.36
2022-10-18T08:49:54.825Z,18.43
2022-10-18T08:52:33.401Z,18.55
2022-10-18T08:55:08.029Z,18.62
2022-10-18T08:57:36.313Z,18.80
2022-10-18T09:00:17.085Z,18.88
2022-10-18T09:03:15.586Z,18.71
2022-10-18T09:05:52.773Z,18.89
2022-10-18T09:08:49.852Z,18.93
2022-10-18T09:11:47.138Z,18.86
2022-10-18T09:14:57.330Z,18.78
2022-10-18T09:17:43.330Z,18.86
2022-10-18T09:20:22.434Z,18.76
2022-10-18T09:22:56.301Z,18.87
2022-10-18T09:25:29.522Z,19.11
2022-10-18T09:28:16.360Z,19.03
2022-10-18T09:30:59.456Z,19.35
2022-10-18T09:33:46.945Z,19.34
2022-10-18T09:36:21.736Z,19.31
2022-10-18T09:38:58.545Z,19.27
2022-10-18T09:41:40.872Z,19.00
2022-10-18T09:44:19.865Z,19.02
2022-10-18T09:46:55.799Z,19.16
2022-10-18T09:49:30.477Z,19.44
2022-10-18T09:52:08.023Z,19.46
2022-10-18T09:54:44.312Z,19.48
2022-10-18T09:57:23.460Z,19.69
2022-10-18T09:59:51.465Z,19.77
2022-10-18T10:02:23.195Z,19.83
2022-10-18T10:04:54.060Z,19.64
2022-10-18T10:07:29.931Z,19.41
2022-10-18T10:10:13.377Z,19.30
2022-10-18T10:12:43.947Z,19.70
2022-10-18T10:15:22.586Z,20.12
2022-10-18T10:18:00.229Z,20.54
2022-10-18T10:20:37.022Z,21.18
2022-10-18T10:23:20.323Z,21.66
2022-10-18T10:25:53.110Z,21.38
2022-10-18T10:28:28.840Z,21.66
2022-10-18T10:31:25.679Z,22.17
2022-10-18T10:34:01.701Z,22.18
2022-10-18T10:36:31.545Z,22.15
2022-10-18T10:39:12.631Z,22.54
2022-10-18T10:41:41.618Z,22.55
2022-10-18T10:44:17.451Z,22.81
2022-10-18T10:46:48.601Z,23.25
2022-10-18T10:49:39.634Z,23.30
2022-10-18T10:52:27.794Z,23.28
2022-10-18T10:55:33.982Z,23.34
2022-10-18T10:58:03.193Z,23.29
2022-10-18T11:00:40.637Z,23.12
2022-10-18T11:03:27.939Z,23.32
2022-10-18T11:06:00.300Z,23.12
2022-10-18T11:08:36.017Z,23.27
2022-10-18T11:11:22.886Z,23.67
2022-10-18T11:14:13.803Z,23.56
2022-10-18T11:16:58.780Z,23.39
2022-10-18T11:19:39.264Z,22.55
2022-10-18T11:22:17.258Z,22.73
2022-10-18T11:24:48.100Z,22.92
2022-10-18T11:27:27.424Z,22.70
2022-10-18T11:30:21.661Z,22.34
2022-10-18T11:33:10.094Z,21.94
2022-10-18T11:35:50.181Z,21.90
2022-10-18T11:38:37.289Z,21.53
2022-10-18T11:41:37.517Z,21.51
2022-10-18T11:44:24.822Z,21.21
2022-10-18T11:47:08.411Z,20.91
2022-10-18T11:49:55.704Z,20.82
2022-10-18T11:52:39.552Z,20.58
2022-10-18T11:55:39.981Z,20.36
2022-10-18T11:58:31.875Z,20.49
2022-10-18T12:01:13.122Z,20.36
2022-10-18T12:03:59.360Z,20.40
2022-10-18T12:06:34.963Z,20.46
2022-10-18T12:09:14.495Z,20.51
2022-10-18T12:11:55.502Z,20.53
2022-10-18T12:14:29.750Z,20.57
2022-10-18T12:17:41.702Z,20.94
2022-10-18T12:19:59.301Z,21.05
2022-10-18T12:22:36.170Z,21.48
2022-10-18T12:25:04.912Z,22.05
2022-10-18T12:27:40.939Z,22.67
2022-10-18T12:30:24.749Z,22.80
2022-10-18T12:33:26.758Z,23.02
2022-10-18T12:36:11.473Z,23.40
2022-10-18T12:38:45.378Z,23.33
2022-10-18T12:41:22.296Z,23.12
2022-10-18T12:43:58.940Z,23.01
2022-10-18T12:46:46.795Z,22.49
2022-10-18T12:49:27.399Z,22.24
2022-10-18T12:51:59.565Z,22.31
2022-10-18T12:54:31.233Z,22.06
2022-10-18T12:57:01.908Z,22.12
2022-10-18T12:59:51.070Z,21.86
2022-10-18T13:02:31.575Z,21.30
2022-10-18T13:05:33.790Z,21.26
2022-10-18T13:08:41.878Z,21.19
2022-10-18T13:11:33.348Z,20.99
2022-10-18T13:14:59.094Z,21.16
2022-10-18T13:17:43.565Z,21.73
2022-10-18T13:20:38.528Z,22.00
2022-10-18T13:23:33.968Z,22.05
2022-10-18T13:26:21.793Z,22.52
2022-10-18T13:29:05.148Z,22.73
2022-10-18T13:31:43.541Z,23.20
2022-10-18T13:34:25.857Z,23.51
2022-10-18T13:37:01.821Z,23.88
2022-10-18T13:39:32.198Z,23.78
2022-10-18T13:42:32.156Z,23.60
2022-10-18T13:45:44.471Z,23.34
2022-10-18T13:48:48.311Z,24.14
2022-10-18T13:51:48.366Z,24.13
2022-10-18T13:54:55.926Z,24.34
2022-10-18T13:57:51.531Z,23.71
2022-10-18T14:00:55.311Z,23.60
2022-10-18T14:03:57.614Z,23.39
2022-10-18T14:06:34.592Z,23.36
2022-10-18T14:09:25.685Z,23.39
2022-10-18T14:12:19.025Z,23.06
2022-10-18T14:14:56.775Z,22.53
2022-10-18T14:17:35.095Z,22.75
2022-10-18T14:20:17.214Z,22.66
2022-10-18T14:22:53.486Z,22.89
2022-10-18T14:25:27.636Z,22.85
2022-10-18T14:28:13.960Z,22.19
2022-10-18T14:30:54.730Z,21.94
2022-10-18T14:33:31.604Z,21.68
2022-10-18T14:36:05.597Z,21.24
2022-10-18T14:38:36.330Z,20.88
2022-10-18T14:41:07.095Z,20.87
2022-10-18T14:44:21.058Z,20.80
2022-10-18T14:46:52.596Z,21.12
2022-10-18T14:49:21.803Z,21.61
2022-10-18T14:51:52.825Z,22.05
2022-10-18T14:54:30.666Z,21.87
2022-10-18T14:57:01.254Z,21.82
2022-10-18T14:59:37.593Z,21.93
2022-10-18T15:02:15.155Z,21.65
2022-10-18T15:04:45.908Z,21.37
2022-10-18T15:07:17.475Z,20.99
2022-10-18T15:09:47.321Z,20.85
2022-10-18T15:12:17.344Z,20.80
2022-10-18T15:14:48.317Z,20.77
2022-10-18T15:17:22.173Z,20.81
2022-10-18T15:19:59.423Z,20.81
2022-10-18T15:22:33.058Z,20.96
2022-10-18T15:25:16.895Z,20.95
2022-10-18T15:27:49.680Z,20.68
2022-10-18T15:30:27.760Z,20.41
2022-10-18T15:32:59.657Z,20.27
2022-10-18T15:35:31.870Z,19.92
2022-10-18T15:38:12.475Z,19.63
2022-10-18T15:40:42.479Z,19.62
2022-10-18T15:43:36.742Z,19.69
2022-10-18T15:46:07.087Z,19.49
2022-10-18T15:48:38.516Z,19.41
2022-10-18T15:51:10.161Z,19.31
2022-10-18T15:53:52.010Z,19.11
2022-10-18T15:56:38.276Z,18.90
2022-10-18T15:59:22.137Z,18.70
2022-10-18T16:01:58.941Z,18.57
2022-10-18T16:04:34.545Z,18.50
2022-10-18T16:07:02.278Z,18.37
2022-10-18T16:09:30.066Z,18.35
2022-10-18T16:11:58.460Z,18.33
2022-10-18T16:14:27.020Z,18.17
2022-10-18T16:17:07.115Z,17.96
2022-10-18T16:19:34.875Z,17.91
2022-10-18T16:22:06.593Z,17.88
2022-10-18T16:24:35.314Z,17.66
2022-10-18T16:27:03.340Z,17.62
2022-10-18T16:29:33.187Z,17.55
2022-10-18T16:32:02.339Z,17.39
2022-10-18T16:34:32.054Z,17.34
2022-10-18T16:37:00.054Z,17.28
2022-10-18T16:39:29.841Z,17.20
2022-10-18T16:41:57.598Z,17.10
2022-10-18T16:44:25.436Z,17.07
2022-10-18T16:46:56.315Z,16.97
2022-10-18T16:49:26.645Z,16.82
2022-10-18T16:51:55.246Z,16.72
2022-10-18T16:54:23.580Z,16.65
2022-10-18T16:56:51.396Z,16.57
2022-10-18T16:59:25.736Z,16.49
2022-10-18T17:01:53.625Z,16.41
2022-10-18T17:04:21.533Z,16.30
2022-10-18T17:06:54.256Z,16.17
2022-10-18T17:09:21.977Z,16.08
2022-10-18T17:11:49.810Z,16.03
2022-10-18T17:14:17.541Z,15.98
2022-10-18T17:16:48.287Z,15.99
2022-10-18T17:19:36.590Z,15.90
2022-10-18T17:22:05.706Z,15.78
2022-10-18T17:24:34.138Z,15.67
2022-10-18T17:27:02.084Z,15.52
2022-10-18T17:29:29.819Z,15.37
2022-10-18T17:31:57.585Z,15.26
2022-10-18T17:34:25.736Z,15.12
2022-10-18T17:36:54.218Z,15.00
2022-10-18T17:39:23.353Z,14.91
2022-10-18T17:41:51.065Z,14.74
2022-10-18T17:44:18.800Z,14.67
2022-10-18T17:46:46.558Z,14.55
2022-10-18T17:49:15.449Z,14.42
2022-10-18T17:51:46.341Z,14.37
2022-10-18T17:54:14.175Z,14.26
2022-10-18T17:56:45.048Z,14.12
2022-10-18T17:59:12.818Z,14.09
2022-10-18T18:01:40.668Z,14.05
2022-10-18T18:04:08.496Z,13.96
2022-10-18T18:06:39.031Z,13.92
2022-10-18T18:09:13.961Z,13.84
2022-10-18T18:11:45.420Z,13.79
2022-10-18T18:14:13.224Z,13.73
2022-10-18T18:16:44.077Z,13.66
2022-10-18T18:19:13.568Z,13.55
2022-10-18T18:21:42.704Z,13.48
2022-10-18T18:24:11.795Z,13.44
2022-10-18T18:26:41.395Z,13.40
2022-10-18T18:29:12.783Z,13.34
2022-10-18T18:31:43.758Z,13.28
2022-10-18T18:34:12.463Z,13.21
2022-10-18T18:36:42.750Z,13.16
2022-10-18T18:39:20.279Z,13.13
2022-10-18T18:42:06.937Z,13.07
2022-10-18T18:44:37.765Z,13.03
2022-10-18T18:47:10.873Z,12.97
2022-10-18T18:49:41.091Z,13.09
2022-10-18T18:52:08.832Z,13.13
2022-10-18T18:54:36.816Z,13.12
2022-10-18T18:57:05.291Z,13.07
2022-10-18T18:59:33.024Z,13.05
2022-10-18T19:02:02.168Z,12.97
2022-10-18T19:04:30.514Z,12.98
2022-10-18T19:06:58.261Z,12.97
2022-10-18T19:09:27.302Z,12.94
2022-10-18T19:11:56.526Z,12.99
2022-10-18T19:14:25.711Z,12.97
2022-10-18T19:16:55.429Z,12.89
2022-10-18T19:19:26.541Z,12.85
2022-10-18T19:21:56.758Z,12.79
2022-10-18T19:24:27.583Z,12.76
2022-10-18T19:26:57.261Z,12.68
2022-10-18T19:29:29.350Z,12.67
2022-10-18T19:32:00.120Z,12.68
2022-10-18T19:34:31.789Z,12.65
2022-10-18T19:37:00.654Z,12.58
2022-10-18T19:39:30.432Z,12.55
2022-10-18T19:42:18.689Z,12.58
2022-10-18T19:44:50.489Z,12.63
2022-10-18T19:47:18.514Z,12.55
2022-10-18T19:49:48.487Z,12.47
2022-10-18T19:52:18.688Z,12.51
2022-10-18T19:54:48.751Z,12.60
2022-10-18T19:57:16.573Z,12.62
2022-10-18T19:59:44.588Z,12.64
2022-10-18T20:02:14.165Z,12.62
2022-10-18T20:04:41.926Z,12.55
2022-10-18T20:07:11.362Z,12.53
2022-10-18T20:09:40.761Z,12.53
2022-10-18T20:12:09.758Z,12.51
2022-10-18T20:14:37.505Z,12.41
2022-10-18T20:17:06.157Z,12.39
2022-10-18T20:19:33.917Z,12.32
2022-10-18T20:22:01.659Z,12.18
2022-10-18T20:24:30.889Z,12.02
2022-10-18T20:26:58.634Z,11.97
2022-10-18T20:29:26.432Z,11.93
2022-10-18T20:31:55.588Z,11.94
2022-10-18T20:34:25.847Z,11.99
2022-10-18T20:36:54.690Z,12.02
2022-10-18T20:39:22.699Z,11.97
2022-10-18T20:41:51.860Z,11.95
2022-10-18T20:44:20.803Z,11.93
2022-10-18T20:46:48.548Z,11.89
2022-10-18T20:49:17.090Z,11.85
2022-10-18T20:51:45.361Z,11.77
2022-10-18T20:54:13.141Z,11.75
2022-10-18T20:56:41.254Z,11.71
2022-10-18T20:59:11.413Z,11.62
2022-10-18T21:01:39.779Z,11.54
2022-10-18T21:04:10.090Z,11.45
2022-10-18T21:06:40.868Z,11.42
2022-10-18T21:09:12.667Z,11.42
2022-10-18T21:11:44.621Z,11.43
2022-10-18T21:14:18.525Z,11.39
2022-10-18T21:16:47.258Z,11.33
2022-10-18T21:19:18.629Z,11.29
2022-10-18T21:21:51.881Z,11.28
2022-10-18T21:24:23.868Z,11.27
2022-10-18T21:26:52.509Z,11.19
2022-10-18T21:29:22.952Z,11.28
2022-10-18T21:31:55.021Z,11.33
2022-10-18T21:34:22.915Z,11.39
2022-10-18T21:36:51.070Z,11.47
2022-10-18T21:39:38.876Z,11.57
2022-10-18T21:42:12.222Z,11.64
2022-10-18T21:44:41.390Z,11.71
2022-10-18T21:47:15.548Z,11.77
2022-10-18T21:49:43.258Z,11.81
2022-10-18T21:52:12.075Z,11.85
2022-10-18T21:54:39.791Z,11.88
2022-10-18T21:57:07.573Z,11.92
2022-10-18T21:59:35.315Z,11.96
2022-10-18T22:02:04.448Z,11.98
2022-10-18T22:04:35.967Z,11.98
2022-10-18T22:07:04.752Z,12.06
2022-10-18T22:09:32.656Z,12.07
2022-10-18T22:12:00.483Z,12.08
2022-10-18T22:14:28.298Z,12.06
2022-10-18T22:16:56.080Z,12.09
2022-10-18T22:19:26.365Z,12.11
2022-10-18T22:21:54.215Z,12.11
2022-10-18T22:24:21.927Z,12.11
2022-10-18T22:26:50.997Z,12.07
2022-10-18T22:29:21.189Z,12.04
2022-10-18T22:31:52.110Z,12.11
2022-10-18T22:34:24.140Z,12.13
2022-10-18T22:36:53.823Z,12.14
2022-10-18T22:39:21.900Z,12.13
2022-10-18T22:41:55.504Z,12.10
2022-10-18T22:44:23.653Z,12.13
2022-10-18T22:46:51.441Z,12.16
2022-10-18T22:49:19.230Z,12.12
2022-10-18T22:51:46.980Z,12.08
2022-10-18T22:54:16.245Z,12.08
2022-10-18T22:56:44.042Z,12.08
2022-10-18T22:59:11.832Z,12.07
2022-10-18T23:01:39.575Z,12.09
2022-10-18T23:04:08.600Z,12.11
2022-10-18T23:06:38.948Z,12.12
2022-10-18T23:09:10.264Z,12.09
2022-10-18T23:11:39.339Z,12.09
2022-10-18T23:14:07.504Z,12.06
2022-10-18T23:16:35.577Z,12.04
2022-10-18T23:19:04.145Z,12.00
2022-10-18T23:21:34.250Z,11.98
2022-10-18T23:24:02.159Z,11.96
2022-10-18T23:26:30.667Z,11.95
2022-10-18T23:29:01.399Z,11.92
2022-10-18T23:31:32.138Z,11.84
2022-10-18T23:34:04.587Z,11.74
2022-10-18T23:36:35.899Z,11.62
2022-10-18T23:39:04.946Z,11.51
2022-10-18T23:41:33.293Z,11.21
2022-10-18T23:44:02.590Z,10.94
2022-10-18T23:46:30.346Z,10.81
2022-10-18T23:48:58.092Z,10.75
2022-10-18T23:51:25.832Z,10.74
2022-10-18T23:53:53.880Z,10.68
2022-10-18T23:56:21.692Z,10.63
2022-10-18T23:58:49.446Z,10.56
